Time;durP1;ratioP1;P1;durP2;ratioP2;P2;SDS_P1;SDS_P2;PMS_P1;PMS_P2;Temp;Humidity;BMP_temperature;BMP_pressure;BME280_temperature;BME280_humidity;BME280_pressure;Samples;Min_cycle;Max_cycle;Signal;HPM_P1;HPM_P2
2022/11/14 00:01:07;;;;;;;9.63;7.17;;;8.30;99.90;;;;;;5052329;28;20200;-52
2022/11/14 00:03:34;;;;;;;7.50;6.77;;;8.30;99.90;;;;;;5050080;28;20260;-61
2022/11/14 00:06:05;;;;;;;11.47;7.07;;;8.20;99.90;;;;;;5054770;28;20591;-51
2022/11/14 00:08:33;;;;;;;8.07;6.63;;;8.20;99.90;;;;;;5058117;28;20206;-51
2022/11/14 00:10:59;;;;;;;8.57;6.63;;;8.20;99.90;;;;;;5056719;28;20303;-52
2022/11/14 00:13:26;;;;;;;7.90;6.13;;;8.20;99.90;;;;;;5062629;28;20291;-53
2022/11/14 00:15:53;;;;;;;9.27;7.03;;;8.10;99.90;;;;;;5054256;28;20282;-53
2022/11/14 00:18:21;;;;;;;7.13;6.30;;;8.10;99.90;;;;;;5056632;28;20200;-53
2022/11/14 00:20:52;;;;;;;8.80;6.80;;;8.10;99.90;;;;;;5053054;28;20648;-54
2022/11/14 00:23:20;;;;;;;8.57;6.53;;;8.10;99.90;;;;;;5054289;28;20242;-52
2022/11/14 00:25:47;;;;;;;7.83;6.33;;;8.10;99.90;;;;;;5055499;28;20231;-53
2022/11/14 00:28:14;;;;;;;8.77;6.53;;;8.10;99.90;;;;;;5054625;28;20205;-52
2022/11/14 00:30:41;;;;;;;8.27;6.27;;;8.10;99.90;;;;;;5055726;28;20571;-52
2022/11/14 00:33:07;;;;;;;7.90;6.27;;;8.10;99.90;;;;;;5060373;28;20200;-52
2022/11/14 00:35:34;;;;;;;8.87;6.17;;;8.00;99.90;;;;;;5060027;28;20700;-59
2022/11/14 00:38:01;;;;;;;6.27;5.53;;;8.00;99.90;;;;;;5058199;28;20201;-53
2022/11/14 00:40:28;;;;;;;8.03;6.20;;;7.90;99.90;;;;;;5060415;28;20202;-52
2022/11/14 00:42:54;;;;;;;8.77;5.93;;;7.90;99.90;;;;;;5061189;28;20211;-56
2022/11/14 00:45:21;;;;;;;6.63;5.73;;;7.90;99.90;;;;;;5060328;28;20375;-50
2022/11/14 00:47:48;;;;;;;7.80;5.80;;;8.00;99.90;;;;;;5060291;28;20208;-51
2022/11/14 00:50:16;;;;;;;6.67;5.93;;;8.00;99.90;;;;;;5060468;28;20628;-52
2022/11/14 00:52:42;;;;;;;7.60;6.10;;;7.90;99.90;;;;;;5060256;28;20311;-51
2022/11/14 00:55:09;;;;;;;7.47;6.10;;;8.00;99.90;;;;;;5061627;28;20282;-51
2022/11/14 00:57:36;;;;;;;6.97;5.30;;;7.90;99.90;;;;;;5059279;28;20251;-53
2022/11/14 01:00:05;;;;;;;6.50;5.53;;;8.00;99.90;;;;;;5058024;28;20207;-51
2022/11/14 01:02:32;;;;;;;6.43;5.33;;;7.90;99.90;;;;;;5060317;28;20648;-53
2022/11/14 01:04:59;;;;;;;7.57;6.10;;;7.80;99.90;;;;;;5058202;28;20200;-51
2022/11/14 01:07:26;;;;;;;7.40;5.83;;;7.70;99.90;;;;;;5058539;28;20691;-52
2022/11/14 01:09:52;;;;;;;7.47;6.03;;;7.70;99.90;;;;;;5059742;28;20222;-52
2022/11/14 01:12:19;;;;;;;6.70;5.60;;;7.70;99.90;;;;;;5060503;28;20208;-53
2022/11/14 01:14:46;;;;;;;7.53;5.57;;;7.70;99.90;;;;;;5057057;28;20308;-51
2022/11/14 01:17:13;;;;;;;6.63;5.73;;;7.70;99.90;;;;;;5057905;28;20204;-51
2022/11/14 01:19:40;;;;;;;6.20;5.40;;;7.70;99.90;;;;;;5059201;28;20678;-52
2022/11/14 01:22:07;;;;;;;8.77;6.27;;;7.70;99.90;;;;;;5059090;28;20809;-51
2022/11/14 01:24:34;;;;;;;8.00;5.23;;;7.70;99.90;;;;;;5061104;28;20208;-52
2022/11/14 01:27:01;;;;;;;8.27;5.57;;;7.70;99.90;;;;;;5061183;28;20397;-52
2022/11/14 01:29:28;;;;;;;7.83;5.80;;;7.70;99.90;;;;;;5060087;28;20617;-51
2022/11/14 01:31:55;;;;;;;7.30;5.87;;;7.60;99.90;;;;;;5058310;28;20251;-52
2022/11/14 01:34:22;;;;;;;6.97;5.40;;;7.60;99.90;;;;;;5058327;28;20669;-54
2022/11/14 01:36:49;;;;;;;9.70;6.40;;;7.60;99.90;;;;;;5059563;28;20278;-51
2022/11/14 01:39:16;;;;;;;7.20;5.60;;;7.60;99.90;;;;;;5061327;28;20202;-53
2022/11/14 01:41:42;;;;;;;6.87;5.87;;;7.60;99.90;;;;;;5060615;28;20653;-52
2022/11/14 01:44:16;;;;;;;8.40;6.00;;;7.50;99.90;;;;;;5058736;28;20244;-53
2022/11/14 01:46:49;;;;;;;6.60;5.90;;;7.50;99.90;;;;;;5060393;28;20297;-52
2022/11/14 01:49:25;;;;;;;8.47;6.37;;;7.50;99.90;;;;;;5060808;28;20207;-52
2022/11/14 01:52:14;;;;;;;7.73;6.07;;;7.50;99.90;;;;;;5062054;28;20210;-53
2022/11/14 01:54:45;;;;;;;7.30;6.23;;;7.50;99.90;;;;;;5058721;28;20203;-52
2022/11/14 01:57:15;;;;;;;8.37;6.33;;;7.50;99.90;;;;;;5058914;28;20293;-52
2022/11/14 01:59:48;;;;;;;8.23;5.70;;;7.50;99.90;;;;;;5058500;28;20202;-53
2022/11/14 02:02:22;;;;;;;6.93;6.23;;;7.50;99.90;;;;;;5059145;28;20298;-52
2022/11/14 02:04:54;;;;;;;8.40;6.40;;;7.50;99.90;;;;;;5075598;28;20293;-52
2022/11/14 02:07:23;;;;;;;11.43;6.53;;;7.50;99.90;;;;;;5059942;28;20644;-52
2022/11/14 02:09:51;;;;;;;8.03;5.80;;;7.50;99.90;;;;;;5058678;28;20238;-52
2022/11/14 02:12:19;;;;;;;9.13;6.83;;;7.40;99.90;;;;;;5060165;28;20202;-54
2022/11/14 02:14:49;;;;;;;9.00;6.67;;;7.40;99.90;;;;;;5058782;28;20312;-52
2022/11/14 02:17:18;;;;;;;7.73;6.50;;;7.40;99.90;;;;;;5059671;28;20203;-52
2022/11/14 02:20:03;;;;;;;6.97;5.80;;;7.40;99.90;;;;;;5058653;28;20199;-53
2022/11/14 02:22:31;;;;;;;8.80;6.60;;;7.40;99.90;;;;;;5059710;28;20604;-53
2022/11/14 02:24:58;;;;;;;6.87;6.17;;;7.30;99.90;;;;;;5060074;28;20196;-53
2022/11/14 02:27:25;;;;;;;9.60;6.73;;;7.30;99.90;;;;;;5059581;28;20635;-53
2022/11/14 02:29:52;;;;;;;10.07;6.53;;;7.30;99.90;;;;;;5058840;28;20220;-53
2022/11/14 02:32:19;;;;;;;9.53;7.47;;;7.10;99.90;;;;;;5059713;28;20218;-52
2022/11/14 02:34:46;;;;;;;8.93;6.73;;;7.10;99.90;;;;;;5058759;28;20240;-60
2022/11/14 02:37:12;;;;;;;8.20;6.27;;;7.10;99.90;;;;;;5073676;28;20202;-52
2022/11/14 02:39:39;;;;;;;10.07;6.93;;;7.00;99.90;;;;;;5055074;28;20207;-57
2022/11/14 02:42:06;;;;;;;7.63;6.00;;;7.00;99.90;;;;;;5059507;28;20197;-55
2022/11/14 02:44:33;;;;;;;9.27;6.77;;;7.00;99.90;;;;;;5056001;28;20211;-51
2022/11/14 02:46:59;;;;;;;9.83;7.10;;;7.00;99.90;;;;;;5060222;28;20195;-57
2022/11/14 02:49:26;;;;;;;8.07;6.80;;;7.00;99.90;;;;;;5058877;28;20212;-53
2022/11/14 02:51:53;;;;;;;8.43;6.30;;;6.90;99.90;;;;;;5059980;28;20203;-52
2022/11/14 02:54:20;;;;;;;8.77;7.37;;;6.90;99.90;;;;;;5059325;28;20196;-53
2022/11/14 02:56:46;;;;;;;8.37;7.17;;;6.90;99.90;;;;;;5058738;28;20304;-52
2022/11/14 02:59:13;;;;;;;9.07;6.53;;;6.80;99.90;;;;;;5057178;28;20203;-53
2022/11/14 03:01:40;;;;;;;9.73;7.10;;;6.80;99.90;;;;;;5058296;28;20310;-52
2022/11/14 03:04:07;;;;;;;9.03;6.77;;;6.70;99.90;;;;;;5056084;28;20249;-52
2022/11/14 03:06:34;;;;;;;7.73;6.40;;;6.80;99.90;;;;;;5058820;28;20250;-54
2022/11/14 03:09:00;;;;;;;9.03;6.43;;;6.80;99.90;;;;;;5056158;28;20198;-52
2022/11/14 03:11:27;;;;;;;9.57;6.60;;;6.70;99.90;;;;;;5056256;28;20287;-53
2022/11/14 03:13:54;;;;;;;6.90;6.20;;;6.70;99.90;;;;;;5059406;28;20300;-52
2022/11/14 03:16:21;;;;;;;10.80;7.17;;;6.60;99.90;;;;;;5057273;28;20199;-51
2022/11/14 03:18:48;;;;;;;8.40;7.30;;;6.60;99.90;;;;;;5057835;28;20218;-53
2022/11/14 03:21:18;;;;;;;10.77;7.10;;;6.60;99.90;;;;;;5057347;28;20212;-52
2022/11/14 03:23:44;;;;;;;8.30;6.60;;;6.50;99.90;;;;;;5058319;28;20309;-54
2022/11/14 03:26:13;;;;;;;9.53;7.33;;;6.50;99.90;;;;;;5057781;28;20210;-51
2022/11/14 03:28:41;;;;;;;9.60;7.57;;;6.60;99.90;;;;;;5057289;28;20287;-52
2022/11/14 03:31:11;;;;;;;8.00;6.73;;;6.60;99.90;;;;;;5058295;28;20203;-53
2022/11/14 03:33:38;;;;;;;10.33;7.27;;;6.60;99.90;;;;;;5058577;28;20547;-53
2022/11/14 03:36:05;;;;;;;9.63;6.87;;;6.60;99.90;;;;;;5055926;28;20335;-53
2022/11/14 03:38:33;;;;;;;9.77;7.50;;;6.50;99.90;;;;;;5055921;28;20202;-53
2022/11/14 03:41:00;;;;;;;9.50;6.97;;;6.50;99.90;;;;;;5060123;28;20676;-52
2022/11/14 03:43:31;;;;;;;9.43;7.30;;;6.50;99.90;;;;;;5055967;28;20231;-52
2022/11/14 03:45:59;;;;;;;9.93;7.33;;;6.50;99.90;;;;;;5057999;28;20200;-54
2022/11/14 03:48:27;;;;;;;8.67;6.87;;;6.40;99.90;;;;;;5058000;28;20201;-52
2022/11/14 03:50:55;;;;;;;9.43;7.47;;;6.50;99.90;;;;;;5060250;28;20730;-54
2022/11/14 03:53:22;;;;;;;10.40;7.83;;;6.40;99.90;;;;;;5057058;28;20200;-50
2022/11/14 03:55:50;;;;;;;9.93;7.50;;;6.40;99.90;;;;;;5056458;28;20211;-53
2022/11/14 03:58:17;;;;;;;9.87;8.20;;;6.40;99.90;;;;;;5056832;28;20328;-51
2022/11/14 04:00:44;;;;;;;10.90;7.33;;;6.30;99.90;;;;;;5057196;28;20733;-55
2022/11/14 04:03:11;;;;;;;9.33;7.67;;;6.20;99.90;;;;;;5057335;28;20526;-53
2022/11/14 04:05:38;;;;;;;10.73;8.20;;;6.10;99.90;;;;;;5058803;28;20297;-52
2022/11/14 04:08:05;;;;;;;10.83;7.90;;;6.00;99.90;;;;;;5061784;28;20200;-53
2022/11/14 04:10:32;;;;;;;12.43;8.50;;;5.90;99.90;;;;;;5060769;28;20224;-52
2022/11/14 04:12:59;;;;;;;13.03;7.80;;;5.80;99.90;;;;;;5058697;28;20308;-54
2022/11/14 04:15:25;;;;;;;13.33;7.97;;;5.90;99.90;;;;;;5059074;28;20703;-53
2022/11/14 04:17:52;;;;;;;9.83;7.57;;;5.90;99.90;;;;;;5057028;28;20678;-53
2022/11/14 04:20:19;;;;;;;10.73;7.43;;;6.00;99.90;;;;;;5059209;28;20556;-53
2022/11/14 04:22:46;;;;;;;11.73;7.93;;;5.90;99.90;;;;;;5060740;28;20250;-52
2022/11/14 04:25:13;;;;;;;9.90;8.03;;;5.80;99.90;;;;;;5062211;28;20199;-53
2022/11/14 04:27:39;;;;;;;12.70;8.73;;;5.80;99.90;;;;;;5059294;28;20193;-53
2022/11/14 04:30:07;;;;;;;11.70;8.03;;;5.80;99.90;;;;;;5056540;28;20188;-58
2022/11/14 04:32:34;;;;;;;12.93;9.43;;;5.80;99.90;;;;;;5062496;28;20205;-54
2022/11/14 04:35:00;;;;;;;10.67;8.37;;;5.90;99.90;;;;;;5056639;28;20242;-55
2022/11/14 04:37:27;;;;;;;10.30;8.13;;;5.90;99.90;;;;;;5058772;28;20378;-52
2022/11/14 04:39:59;;;;;;;11.57;7.67;;;5.90;99.90;;;;;;5058742;28;20203;-51
2022/11/14 04:42:26;;;;;;;9.30;7.53;;;5.90;99.90;;;;;;5058951;28;20199;-52
2022/11/14 04:44:53;;;;;;;11.67;8.03;;;5.70;99.90;;;;;;5055687;28;20265;-53
2022/11/14 04:47:20;;;;;;;14.67;9.67;;;5.60;99.90;;;;;;5059615;28;20736;-53
2022/11/14 04:49:47;;;;;;;13.00;8.27;;;5.50;99.90;;;;;;5058489;28;20205;-52
2022/11/14 04:52:14;;;;;;;11.47;8.33;;;5.50;99.90;;;;;;5058564;28;20608;-56
2022/11/14 04:54:40;;;;;;;11.43;8.17;;;5.40;99.90;;;;;;5059430;28;20203;-54
2022/11/14 04:57:07;;;;;;;10.53;8.47;;;5.40;99.90;;;;;;5060100;28;20622;-52
2022/11/14 04:59:34;;;;;;;12.37;8.80;;;5.40;99.90;;;;;;5057676;28;20202;-52
2022/11/14 05:02:01;;;;;;;13.00;8.73;;;5.50;99.90;;;;;;5058102;28;20208;-53
2022/11/14 05:04:28;;;;;;;13.00;9.13;;;5.40;99.90;;;;;;5060281;28;20220;-54
2022/11/14 05:06:54;;;;;;;13.77;8.60;;;5.30;99.90;;;;;;5060481;28;20545;-52
2022/11/14 05:09:21;;;;;;;15.63;9.53;;;5.20;99.90;;;;;;5057456;28;20680;-52
2022/11/14 05:11:48;;;;;;;11.43;8.93;;;5.10;99.90;;;;;;5058654;28;20698;-59
2022/11/14 05:14:15;;;;;;;12.80;8.63;;;5.10;99.90;;;;;;5057112;28;20207;-53
2022/11/14 05:16:41;;;;;;;13.03;9.27;;;5.00;99.90;;;;;;5054097;28;20206;-52
2022/11/14 05:19:08;;;;;;;14.40;9.83;;;4.90;99.90;;;;;;5057463;28;20201;-53
2022/11/14 05:21:35;;;;;;;12.40;9.37;;;4.90;99.90;;;;;;5060157;28;20206;-53
2022/11/14 05:24:02;;;;;;;13.00;9.33;;;4.90;99.90;;;;;;5060649;28;20742;-52
2022/11/14 05:26:29;;;;;;;14.43;9.13;;;4.80;99.90;;;;;;5059187;28;20289;-51
2022/11/14 05:28:56;;;;;;;13.87;8.97;;;4.90;99.90;;;;;;5060162;28;20196;-53
2022/11/14 05:31:22;;;;;;;15.43;10.00;;;4.90;99.90;;;;;;5059189;28;20307;-52
2022/11/14 05:33:50;;;;;;;14.43;9.10;;;4.90;99.90;;;;;;5066581;28;20214;-52
2022/11/14 05:36:17;;;;;;;13.37;9.37;;;5.00;99.90;;;;;;5062272;28;20660;-54
2022/11/14 05:38:43;;;;;;;12.37;9.23;;;4.90;99.90;;;;;;5056569;28;20280;-51
2022/11/14 05:41:16;;;;;;;15.97;9.37;;;5.00;99.90;;;;;;5058337;28;20697;-52
2022/11/14 05:43:43;;;;;;;12.63;9.37;;;4.90;99.90;;;;;;5058431;28;20329;-51
2022/11/14 05:46:12;;;;;;;13.17;9.33;;;4.90;99.90;;;;;;5060499;28;20215;-51
2022/11/14 05:48:39;;;;;;;13.40;9.07;;;4.90;99.90;;;;;;5058100;28;20207;-52
2022/11/14 05:51:09;;;;;;;14.73;9.67;;;4.80;99.90;;;;;;5060791;28;20224;-53
2022/11/14 05:53:36;;;;;;;13.57;9.40;;;4.90;99.90;;;;;;5058030;28;20200;-52
2022/11/14 05:56:06;;;;;;;15.13;9.33;;;4.80;99.90;;;;;;5058732;28;20203;-54
2022/11/14 05:58:34;;;;;;;15.27;8.67;;;4.80;99.90;;;;;;5059567;28;20208;-53
2022/11/14 06:01:18;;;;;;;15.53;9.60;;;4.80;99.90;;;;;;5057644;28;20668;-52
2022/11/14 06:03:46;;;;;;;15.90;9.60;;;4.80;99.90;;;;;;5060726;28;20221;-55
2022/11/14 06:06:17;;;;;;;14.70;10.17;;;4.80;99.90;;;;;;5059215;28;20207;-54
2022/11/14 06:08:44;;;;;;;11.67;8.83;;;4.80;99.90;;;;;;5058726;28;20206;-53
2022/11/14 06:11:14;;;;;;;14.90;9.40;;;4.90;99.90;;;;;;5060279;28;20412;-52
2022/11/14 06:13:42;;;;;;;17.23;9.23;;;4.90;99.90;;;;;;5059022;28;20701;-53
2022/11/14 06:16:11;;;;;;;14.73;9.30;;;5.00;99.90;;;;;;5057720;28;20238;-52
2022/11/14 06:18:38;;;;;;;14.73;9.60;;;5.00;99.90;;;;;;5057102;28;20198;-52
2022/11/14 06:21:17;;;;;;;14.53;8.70;;;5.00;99.90;;;;;;5060618;28;20251;-55
2022/11/14 06:23:45;;;;;;;14.90;9.10;;;5.00;99.90;;;;;;5056151;28;20223;-51
2022/11/14 06:26:29;;;;;;;11.57;8.60;;;5.00;99.90;;;;;;5054419;28;20649;-52
2022/11/14 06:28:56;;;;;;;12.70;9.13;;;5.00;99.90;;;;;;5056697;28;20235;-51
2022/11/14 06:31:24;;;;;;;13.57;8.97;;;5.00;99.90;;;;;;5058508;28;20199;-52
2022/11/14 06:33:51;;;;;;;13.10;9.23;;;5.00;99.90;;;;;;5056570;28;20233;-55
2022/11/14 06:36:18;;;;;;;13.07;9.17;;;5.00;99.90;;;;;;5059819;28;20276;-51
2022/11/14 06:38:45;;;;;;;10.90;8.33;;;5.00;99.90;;;;;;5058461;28;20293;-53
2022/11/14 06:41:14;;;;;;;13.13;8.90;;;5.10;99.90;;;;;;5061104;28;20577;-57
2022/11/14 06:43:43;;;;;;;14.03;9.07;;;5.00;99.90;;;;;;5059893;28;20226;-51
2022/11/14 06:46:12;;;;;;;13.50;8.77;;;5.00;99.90;;;;;;5056513;28;20202;-52
2022/11/14 06:48:40;;;;;;;12.10;8.70;;;4.90;99.90;;;;;;5058213;28;20541;-55
2022/11/14 06:51:15;;;;;;;12.77;8.63;;;4.90;99.90;;;;;;4702129;27;9999856;-53
2022/11/14 06:53:43;;;;;;;13.37;9.07;;;5.00;99.90;;;;;;5024979;28;20197;-52
2022/11/14 06:56:12;;;;;;;11.47;8.80;;;5.00;99.90;;;;;;5056431;28;20204;-51
2022/11/14 06:58:42;;;;;;;13.83;8.23;;;5.00;99.90;;;;;;5028192;28;20665;-53
2022/11/14 07:01:13;;;;;;;10.97;8.80;;;5.00;99.90;;;;;;5020794;28;20207;-52
2022/11/14 07:03:41;;;;;;;19.40;8.60;;;5.00;99.90;;;;;;5032550;28;20204;-53
2022/11/14 07:06:10;;;;;;;14.60;8.87;;;5.10;99.90;;;;;;5026993;28;20236;-53
2022/11/14 07:08:37;;;;;;;11.23;7.87;;;5.10;99.90;;;;;;5025925;28;20196;-52
2022/11/14 07:11:10;;;;;;;10.53;7.97;;;5.10;99.90;;;;;;5039778;28;20232;-54
2022/11/14 07:13:38;;;;;;;12.23;8.87;;;5.10;99.90;;;;;;5050459;28;20669;-52
2022/11/14 07:16:05;;;;;;;11.60;7.70;;;5.20;99.90;;;;;;5049074;28;21371;-52
2022/11/14 07:18:32;;;;;;;16.77;8.53;;;5.20;99.90;;;;;;5046227;28;20924;-53
2022/11/14 07:21:03;;;;;;;12.97;8.03;;;5.20;99.90;;;;;;5048408;28;20195;-53
2022/11/14 07:23:31;;;;;;;13.00;8.37;;;5.20;99.90;;;;;;5049880;28;20212;-58
2022/11/14 07:26:03;;;;;;;14.27;8.33;;;5.20;99.90;;;;;;5051892;28;20206;-53
2022/11/14 07:28:30;;;;;;;11.87;8.17;;;5.30;99.90;;;;;;5051230;28;20203;-52
2022/11/14 07:30:58;;;;;;;11.50;7.97;;;5.30;99.90;;;;;;5049185;28;20223;-52
2022/11/14 07:33:25;;;;;;;17.43;8.50;;;5.40;99.90;;;;;;5048750;28;20198;-51
2022/11/14 07:35:51;;;;;;;13.27;8.43;;;5.60;99.90;;;;;;5047501;28;20207;-52
2022/11/14 07:38:18;;;;;;;13.03;8.03;;;5.70;99.90;;;;;;5060024;28;20652;-52
2022/11/14 07:41:03;;;;;;;13.30;8.50;;;5.80;99.90;;;;;;5046198;28;20557;-51
2022/11/14 07:43:30;;;;;;;9.47;7.63;;;5.80;99.90;;;;;;5048392;28;20203;-51
2022/11/14 07:46:01;;;;;;;12.67;7.50;;;5.90;99.90;;;;;;5046625;28;20232;-52
2022/11/14 07:48:29;;;;;;;13.10;8.00;;;6.00;99.90;;;;;;5042914;28;20707;-51
2022/11/14 07:50:58;;;;;;;12.27;8.00;;;6.00;99.90;;;;;;5076844;28;20240;-53
2022/11/14 07:53:26;;;;;;;10.33;7.50;;;5.90;99.90;;;;;;5039848;28;20717;-54
2022/11/14 07:55:53;;;;;;;12.70;9.15;;;5.90;99.90;;;;;;5042856;28;20460;-52
2022/11/14 07:58:20;;;;;;;13.30;8.27;;;5.80;99.90;;;;;;5055838;28;20196;-53
2022/11/14 08:00:47;;;;;;;13.70;8.27;;;6.00;99.90;;;;;;5050040;28;20216;-51
2022/11/14 08:03:14;;;;;;;13.77;7.57;;;5.80;99.90;;;;;;5031780;28;20633;-52
2022/11/14 08:05:40;;;;;;;12.43;7.73;;;5.80;99.90;;;;;;5033074;28;20201;-51
2022/11/14 08:08:07;;;;;;;11.23;7.40;;;5.70;99.90;;;;;;5027826;28;20211;-52
2022/11/14 08:10:34;;;;;;;11.40;7.60;;;5.60;99.90;;;;;;5032595;28;20587;-50
2022/11/14 08:13:03;;;;;;;12.57;7.90;;;5.50;99.90;;;;;;5024231;28;20668;-51
2022/11/14 08:15:51;;;;;;;11.60;6.80;;;5.40;99.90;;;;;;5023645;28;20205;-52
2022/11/14 08:18:17;;;;;;;10.00;6.93;;;5.40;99.90;;;;;;5030541;28;20238;-51
2022/11/14 08:20:44;;;;;;;13.83;7.57;;;5.50;99.90;;;;;;5028305;28;20206;-51
2022/11/14 08:23:11;;;;;;;9.60;6.17;;;5.60;99.90;;;;;;5028649;28;20467;-49
2022/11/14 08:25:39;;;;;;;13.70;7.10;;;5.60;99.90;;;;;;5031690;28;20212;-52
2022/11/14 08:28:06;;;;;;;14.57;6.93;;;5.80;99.90;;;;;;5026310;28;20200;-49
2022/11/14 08:30:33;;;;;;;10.30;7.17;;;5.80;99.90;;;;;;5028285;28;20206;-52
2022/11/14 08:33:04;;;;;;;11.93;7.33;;;5.90;99.90;;;;;;5028415;28;20725;-50
2022/11/14 08:35:32;;;;;;;10.87;7.10;;;6.00;99.90;;;;;;5027181;28;20196;-51
2022/11/14 08:38:02;;;;;;;9.73;7.03;;;6.40;99.90;;;;;;5022045;28;20206;-52
2022/11/14 08:40:29;;;;;;;9.97;6.60;;;6.50;99.90;;;;;;5022633;28;20195;-51
2022/11/14 08:43:00;;;;;;;11.50;7.00;;;6.40;99.90;;;;;;5024964;28;20280;-55
2022/11/14 08:45:28;;;;;;;11.83;8.10;;;6.50;99.90;;;;;;5018979;28;20207;-51
2022/11/14 08:47:56;;;;;;;9.33;6.97;;;6.60;99.90;;;;;;5053150;28;20710;-51
2022/11/14 08:50:23;;;;;;;9.80;6.77;;;6.80;99.90;;;;;;5029812;28;20769;-50
2022/11/14 08:52:50;;;;;;;12.07;6.63;;;6.60;99.90;;;;;;5026780;28;20213;-52
2022/11/14 08:55:19;;;;;;;7.67;6.43;;;6.70;99.90;;;;;;5023957;28;20265;-53
2022/11/14 08:57:46;;;;;;;11.50;7.67;;;6.70;99.90;;;;;;5024056;28;20204;-53
2022/11/14 09:00:16;;;;;;;9.10;7.00;;;6.90;99.90;;;;;;5022270;28;20264;-53
2022/11/14 09:02:43;;;;;;;9.80;6.50;;;6.90;99.90;;;;;;5027628;28;20282;-53
2022/11/14 09:05:10;;;;;;;7.63;6.43;;;6.90;99.90;;;;;;5029427;28;20203;-52
2022/11/14 09:07:37;;;;;;;9.10;6.60;;;7.20;99.90;;;;;;5027116;28;20572;-52
2022/11/14 09:10:04;;;;;;;8.43;6.77;;;7.60;99.90;;;;;;5029931;28;20254;-51
2022/11/14 09:12:32;;;;;;;9.13;6.53;;;7.90;99.90;;;;;;5028460;28;20246;-52
2022/11/14 09:14:58;;;;;;;11.07;6.60;;;8.40;99.90;;;;;;5029001;28;20208;-49
2022/11/14 09:17:25;;;;;;;8.00;6.20;;;8.80;99.90;;;;;;5027681;28;20229;-53
2022/11/14 09:19:53;;;;;;;9.93;7.33;;;9.00;99.90;;;;;;5025901;28;20910;-55
2022/11/14 09:22:19;;;;;;;7.90;6.70;;;9.30;99.90;;;;;;5025554;28;20549;-55
2022/11/14 09:24:46;;;;;;;9.00;6.93;;;9.30;99.90;;;;;;5026385;28;20567;-52
2022/11/14 09:27:13;;;;;;;9.80;6.70;;;9.40;99.90;;;;;;5037406;28;20204;-53
2022/11/14 09:29:40;;;;;;;9.30;6.43;;;9.70;99.90;;;;;;5033536;28;20289;-53
2022/11/14 09:32:07;;;;;;;9.37;6.80;;;9.80;99.90;;;;;;5035062;28;20207;-53
2022/11/14 09:34:34;;;;;;;9.63;6.83;;;10.00;99.90;;;;;;5034106;28;20215;-52
2022/11/14 09:37:00;;;;;;;9.30;6.47;;;9.90;99.90;;;;;;5032252;28;20197;-53
2022/11/14 09:39:27;;;;;;;10.10;6.40;;;9.60;99.90;;;;;;5064213;28;20212;-51
2022/11/14 09:42:28;;;;;;;9.43;6.77;;;9.70;99.90;;;;;;5033048;28;20750;-51
2022/11/14 09:45:01;;;;;;;7.70;6.30;;;9.80;99.90;;;;;;5034068;28;20200;-54
2022/11/14 09:47:59;;;;;;;12.20;7.40;;;10.20;99.90;;;;;;5035364;28;20213;-52
2022/11/14 09:50:33;;;;;;;9.03;7.03;;;10.30;99.90;;;;;;5034114;28;20243;-53
2022/11/14 09:53:13;;;;;;;9.97;6.60;;;10.10;99.90;;;;;;5035136;28;20368;-52
2022/11/14 09:55:40;;;;;;;9.07;6.93;;;10.20;99.90;;;;;;5051940;28;20196;-53
2022/11/14 09:58:14;;;;;;;8.53;6.47;;;10.20;99.90;;;;;;5042372;28;20874;-53
2022/11/14 10:00:57;;;;;;;8.33;6.90;;;9.90;99.90;;;;;;5036189;28;20208;-52
2022/11/14 10:04:08;;;;;;;7.93;6.33;;;10.00;99.90;;;;;;5031213;28;20239;-52
2022/11/14 10:07:17;;;;;;;10.67;7.77;;;10.20;99.90;;;;;;5033542;28;20205;-51
2022/11/14 10:10:33;;;;;;;10.53;7.10;;;10.30;99.90;;;;;;5033740;28;20209;-52
2022/11/14 10:13:38;;;;;;;10.73;6.83;;;10.50;99.90;;;;;;5022574;28;20209;-53
2022/11/14 10:16:14;;;;;;;9.17;7.33;;;10.60;99.90;;;;;;5033341;28;20657;-51
2022/11/14 10:18:46;;;;;;;9.13;7.63;;;10.40;99.90;;;;;;5032660;28;20205;-59
2022/11/14 10:21:23;;;;;;;13.53;7.23;;;10.40;99.90;;;;;;5030239;28;20642;-54
2022/11/14 10:23:59;;;;;;;9.50;7.57;;;10.60;99.90;;;;;;5031194;28;20656;-52
2022/11/14 10:26:31;;;;;;;10.33;7.27;;;10.40;99.90;;;;;;5035387;28;20201;-53
2022/11/14 10:29:40;;;;;;;9.87;7.67;;;10.60;99.90;;;;;;5032051;28;20775;-51
2022/11/14 10:32:18;;;;;;;12.60;8.37;;;10.70;99.90;;;;;;5038702;28;20222;-51
2022/11/14 10:35:04;;;;;;;12.07;8.20;;;10.40;99.90;;;;;;5031520;28;20196;-52
2022/11/14 10:37:43;;;;;;;9.63;7.57;;;10.50;99.90;;;;;;5028717;28;20255;-52
2022/11/14 10:40:23;;;;;;;9.53;7.90;;;10.60;99.90;;;;;;5028525;28;20214;-53
2022/11/14 10:42:55;;;;;;;12.50;8.53;;;10.30;99.90;;;;;;5034482;28;20209;-49
2022/11/14 10:45:32;;;;;;;10.83;7.60;;;10.20;99.90;;;;;;5030082;28;20214;-52
2022/11/14 10:48:34;;;;;;;11.87;8.20;;;10.10;99.90;;;;;;5034077;28;20267;-51
2022/11/14 10:51:04;;;;;;;8.40;7.40;;;10.20;99.90;;;;;;5030087;28;20325;-50
2022/11/14 10:54:06;;;;;;;10.83;7.93;;;10.10;99.90;;;;;;5029430;28;20231;-53
2022/11/14 10:56:33;;;;;;;11.50;8.30;;;10.20;99.90;;;;;;5019567;28;20893;-51
2022/11/14 10:59:00;;;;;;;9.83;7.87;;;10.20;99.90;;;;;;5022401;28;20759;-55
2022/11/14 11:01:33;;;;;;;10.97;8.40;;;10.10;99.90;;;;;;5021481;28;20236;-52
2022/11/14 11:04:22;;;;;;;9.73;8.40;;;10.00;99.90;;;;;;5017783;28;20281;-52
2022/11/14 11:06:51;;;;;;;13.60;9.63;;;10.20;99.90;;;;;;5019075;28;20698;-53
2022/11/14 11:12:23;;;;;;;12.20;8.87;;;10.40;99.90;;;;;;5017580;28;20238;-52
2022/11/14 11:15:18;;;;;;;11.93;9.27;;;10.60;99.90;;;;;;5022167;28;20204;-52
2022/11/14 11:17:55;;;;;;;12.77;8.77;;;10.80;99.90;;;;;;5022484;28;20955;-51
2022/11/14 11:20:36;;;;;;;12.53;9.63;;;11.10;99.90;;;;;;5022818;28;22103;-51
2022/11/14 11:23:09;;;;;;;11.43;8.97;;;11.50;99.90;;;;;;5006508;28;20301;-57
2022/11/14 11:25:39;;;;;;;13.20;9.43;;;11.50;99.90;;;;;;5019583;28;20209;-53
2022/11/14 11:28:14;;;;;;;11.80;9.00;;;11.40;99.90;;;;;;5020404;28;20206;-53
2022/11/14 11:31:01;;;;;;;11.30;9.70;;;11.60;99.90;;;;;;5026754;28;20252;-51
2022/11/14 11:33:33;;;;;;;12.57;9.77;;;11.80;99.90;;;;;;5031081;28;20294;-51
2022/11/14 11:36:16;;;;;;;11.33;9.87;;;12.00;99.90;;;;;;5028676;28;20202;-52
2022/11/14 11:38:44;;;;;;;13.00;10.30;;;12.30;99.90;;;;;;5035301;28;20299;-51
2022/11/14 11:41:20;;;;;;;15.03;10.33;;;12.10;99.90;;;;;;5033201;28;20232;-52
2022/11/14 11:44:14;;;;;;;13.13;10.17;;;12.10;99.90;;;;;;5031694;28;20730;-51
2022/11/14 11:46:52;;;;;;;13.83;10.40;;;12.30;99.90;;;;;;5030564;28;20216;-53
2022/11/14 11:49:34;;;;;;;14.43;10.30;;;12.30;99.90;;;;;;5028898;28;20204;-53
2022/11/14 11:52:08;;;;;;;13.57;9.87;;;12.20;99.90;;;;;;5032976;28;20806;-49
2022/11/14 11:54:58;;;;;;;14.20;10.03;;;12.20;99.90;;;;;;5032715;28;20625;-53
2022/11/14 11:57:35;;;;;;;15.03;10.77;;;12.30;99.90;;;;;;5029284;28;20406;-52
2022/11/14 12:00:23;;;;;;;13.10;10.90;;;12.30;99.90;;;;;;5031207;28;20202;-52
2022/11/14 12:02:52;;;;;;;13.13;10.50;;;12.10;99.90;;;;;;5063452;28;20305;-52
2022/11/14 12:05:49;;;;;;;14.63;11.23;;;12.10;99.90;;;;;;5033616;28;20669;-52
2022/11/14 12:08:38;;;;;;;14.93;11.60;;;12.20;99.90;;;;;;5028268;28;20343;-50
2022/11/14 12:11:10;;;;;;;16.30;11.83;;;12.20;99.90;;;;;;5034991;28;20869;-50
2022/11/14 12:13:58;;;;;;;14.23;11.27;;;12.10;99.90;;;;;;5032574;28;20249;-52
2022/11/14 12:16:53;;;;;;;16.40;11.43;;;11.80;99.90;;;;;;5033332;28;20194;-54
2022/11/14 12:19:47;;;;;;;17.00;12.13;;;12.10;99.90;;;;;;5033028;28;20350;-50
2022/11/14 12:22:34;;;;;;;17.30;12.73;;;12.00;99.90;;;;;;5035035;28;20272;-51
2022/11/14 12:25:04;;;;;;;18.93;13.33;;;11.70;99.90;;;;;;5034597;28;20195;-52
2022/11/14 12:28:05;;;;;;;17.07;13.43;;;11.40;99.90;;;;;;5033354;28;20248;-52
2022/11/14 12:30:34;;;;;;;16.43;13.47;;;11.10;99.90;;;;;;5035202;28;20206;-52
2022/11/14 12:33:35;;;;;;;20.97;13.70;;;10.90;99.90;;;;;;5035411;28;20201;-52
2022/11/14 12:36:07;;;;;;;21.30;15.47;;;10.60;99.90;;;;;;5039118;28;20215;-52
2022/11/14 12:38:48;;;;;;;21.57;15.67;;;10.50;99.90;;;;;;5034064;28;20595;-52
2022/11/14 12:41:36;;;;;;;22.47;16.77;;;10.40;99.90;;;;;;5036366;28;20575;-54
2022/11/14 12:44:17;;;;;;;23.40;15.73;;;10.20;99.90;;;;;;5031125;28;20296;-53
2022/11/14 12:47:03;;;;;;;25.17;16.10;;;10.00;99.90;;;;;;5061812;28;20213;-51
2022/11/14 12:49:37;;;;;;;24.63;16.77;;;9.90;99.90;;;;;;5035897;28;20243;-54
2022/11/14 12:52:24;;;;;;;22.97;16.13;;;9.90;99.90;;;;;;5031479;28;20705;-61
2022/11/14 12:54:51;;;;;;;24.10;17.63;;;10.00;99.90;;;;;;5029404;28;20222;-61
2022/11/14 12:57:48;;;;;;;24.20;17.17;;;10.10;99.90;;;;;;5034038;28;20246;-64
2022/11/14 13:00:17;;;;;;;23.27;15.00;;;10.00;99.90;;;;;;5025286;28;20207;-59
2022/11/14 13:03:12;;;;;;;21.90;15.43;;;10.00;99.90;;;;;;5032657;28;20216;-60
2022/11/14 13:05:59;;;;;;;25.57;16.43;;;10.10;99.90;;;;;;5033510;28;20286;-63
2022/11/14 13:08:50;;;;;;;26.97;15.93;;;10.20;99.90;;;;;;5029019;28;20378;-61
2022/11/14 13:23:24;;;;;;;21.27;14.57;;;10.80;99.90;;;;;;5028004;28;20206;-55
2022/11/14 13:26:09;;;;;;;21.07;15.87;;;10.70;99.90;;;;;;5029014;28;20234;-52